Aviation Digital Data Service (ADDS)

Output produced by METARs form (2130 UTC 21 September 2018)
found at http://aviationweather.gov/metar/data/
 
KTUS 212053Z 34008KT 10SM CLR 34/14 A3003 RMK AO2 SLP119 T03390139 58019
KTUS 211733Z 2118/2218 34008KT P6SM FEW120 
     FM220600 12012G20KT P6SM SKC 
     FM221200 11016G25KT P6SM SKC